createdAt,value
2018-09-27T00:02:25.653Z,6.30
2018-09-27T00:04:54.485Z,7.20
2018-09-27T00:07:23.134Z,6.37
2018-09-27T00:09:51.803Z,5.33
2018-09-27T00:12:20.452Z,6.53
2018-09-27T00:14:49.123Z,6.37
2018-09-27T00:17:17.789Z,8.43
2018-09-27T00:19:46.422Z,5.40
2018-09-27T00:22:15.043Z,5.67
2018-09-27T00:24:43.719Z,10.90
2018-09-27T00:27:12.361Z,6.63
2018-09-27T00:29:41.030Z,6.30
2018-09-27T00:32:09.855Z,7.50
2018-09-27T00:34:38.636Z,7.90
2018-09-27T00:37:07.395Z,7.07
2018-09-27T00:39:36.107Z,8.60
2018-09-27T00:42:04.785Z,6.87
2018-09-27T00:44:33.504Z,8.90
2018-09-27T00:47:02.217Z,7.13
2018-09-27T00:49:30.883Z,8.17
2018-09-27T00:51:59.512Z,8.03
2018-09-27T00:54:28.236Z,8.50
2018-09-27T00:56:56.909Z,7.67
2018-09-27T00:59:25.572Z,6.93
2018-09-27T01:01:54.212Z,7.27
2018-09-27T01:04:22.950Z,8.77
2018-09-27T01:06:51.744Z,8.17
2018-09-27T01:09:20.379Z,7.23
2018-09-27T01:11:49.040Z,7.53
2018-09-27T01:14:17.312Z,8.77
2018-09-27T01:16:45.966Z,9.63
2018-09-27T01:19:14.302Z,7.60
2018-09-27T01:21:42.923Z,9.00
2018-09-27T01:24:11.570Z,7.80
2018-09-27T01:26:40.216Z,8.37
2018-09-27T01:29:08.855Z,7.73
2018-09-27T01:31:37.478Z,11.87
2018-09-27T01:34:06.160Z,7.57
2018-09-27T01:36:34.787Z,10.30
2018-09-27T01:39:03.734Z,8.87
2018-09-27T01:41:32.439Z,7.63
2018-09-27T01:44:01.082Z,8.50
2018-09-27T01:46:29.756Z,9.40
2018-09-27T01:48:58.408Z,10.90
2018-09-27T01:51:27.053Z,8.80
2018-09-27T01:53:55.704Z,10.50
2018-09-27T01:56:24.401Z,7.53
2018-09-27T01:58:53.038Z,8.80
2018-09-27T02:01:21.716Z,7.47
2018-09-27T02:03:50.366Z,8.40
2018-09-27T02:06:19.054Z,7.67
2018-09-27T02:08:47.675Z,6.63
2018-09-27T02:11:16.349Z,9.00
2018-09-27T02:13:44.980Z,11.00
2018-09-27T02:16:13.681Z,9.77
2018-09-27T02:18:41.983Z,7.83
2018-09-27T02:21:10.983Z,8.40
2018-09-27T02:23:39.608Z,8.37
2018-09-27T02:26:08.293Z,9.90
2018-09-27T02:28:36.980Z,8.50
2018-09-27T02:31:05.651Z,8.37
2018-09-27T02:33:34.312Z,8.73
2018-09-27T02:36:02.959Z,7.90
2018-09-27T02:38:31.580Z,9.57
2018-09-27T02:41:00.213Z,10.57
2018-09-27T02:43:28.886Z,10.23
2018-09-27T02:45:57.577Z,9.27
2018-09-27T02:48:26.263Z,10.17
2018-09-27T02:50:54.920Z,7.40
2018-09-27T02:53:23.781Z,8.57
2018-09-27T02:55:52.430Z,9.17
2018-09-27T02:58:21.141Z,9.33
2018-09-27T03:00:49.869Z,9.73
2018-09-27T03:03:18.580Z,9.73
2018-09-27T03:05:47.236Z,7.00
2018-09-27T03:08:15.885Z,8.60
2018-09-27T03:10:44.528Z,9.90
2018-09-27T03:13:13.197Z,8.70
2018-09-27T03:15:41.915Z,8.00
2018-09-27T03:18:10.521Z,8.17
2018-09-27T03:20:39.164Z,8.33
2018-09-27T03:23:07.803Z,7.80
2018-09-27T03:25:36.427Z,8.30
2018-09-27T03:28:05.105Z,8.70
2018-09-27T03:30:33.762Z,10.07
2018-09-27T03:33:02.457Z,11.57
2018-09-27T03:35:31.157Z,8.53
2018-09-27T03:37:59.852Z,7.90
2018-09-27T03:40:28.570Z,9.20
2018-09-27T03:42:57.232Z,7.87
2018-09-27T03:45:26.118Z,11.20
2018-09-27T03:47:54.815Z,8.50
2018-09-27T03:50:23.499Z,11.30
2018-09-27T03:52:52.165Z,8.60
2018-09-27T03:55:20.823Z,10.03
2018-09-27T03:57:49.470Z,9.97
2018-09-27T04:00:18.153Z,8.70
2018-09-27T04:02:46.828Z,8.83
2018-09-27T04:05:15.619Z,9.80
2018-09-27T04:07:44.363Z,10.70
2018-09-27T04:10:13.078Z,15.23
2018-09-27T04:12:41.862Z,10.57
2018-09-27T04:15:10.494Z,13.27
2018-09-27T04:17:39.133Z,13.67
2018-09-27T04:20:07.548Z,11.47
2018-09-27T04:22:36.203Z,10.10
2018-09-27T04:25:05.235Z,10.77
2018-09-27T04:27:33.953Z,13.87
2018-09-27T04:30:02.614Z,11.70
2018-09-27T04:32:31.250Z,11.60
2018-09-27T04:34:59.927Z,13.60
2018-09-27T04:37:28.582Z,9.73
2018-09-27T04:39:57.381Z,14.97
2018-09-27T04:42:25.999Z,9.10
2018-09-27T04:44:54.651Z,12.10
2018-09-27T04:47:23.435Z,12.77
2018-09-27T04:49:52.085Z,9.03
2018-09-27T04:52:20.744Z,11.50
2018-09-27T04:54:49.419Z,8.27
2018-09-27T04:57:18.344Z,10.47
2018-09-27T04:59:46.997Z,12.73
2018-09-27T05:02:15.277Z,10.73
2018-09-27T05:04:43.885Z,10.47
2018-09-27T05:07:12.567Z,10.83
2018-09-27T05:09:41.239Z,10.87
2018-09-27T05:12:09.844Z,13.47
2018-09-27T05:14:38.482Z,10.23
2018-09-27T05:17:07.152Z,9.80
2018-09-27T05:19:35.911Z,10.57
2018-09-27T05:22:04.595Z,8.13
2018-09-27T05:24:33.287Z,9.97
2018-09-27T05:27:01.935Z,10.50
2018-09-27T05:29:30.536Z,11.63
2018-09-27T05:31:59.169Z,11.63
2018-09-27T05:34:27.790Z,10.23
2018-09-27T05:36:56.497Z,10.87
2018-09-27T05:39:25.193Z,10.97
2018-09-27T05:41:53.882Z,11.70
2018-09-27T05:44:22.513Z,10.13
2018-09-27T05:46:51.298Z,10.87
2018-09-27T05:49:19.979Z,11.43
2018-09-27T05:51:48.905Z,10.10
2018-09-27T05:54:17.767Z,8.73
2018-09-27T05:56:46.464Z,10.67
2018-09-27T05:59:15.169Z,10.60
2018-09-27T06:01:43.867Z,9.37
2018-09-27T06:04:12.558Z,9.83
2018-09-27T06:06:41.224Z,11.27
2018-09-27T06:09:11.666Z,10.43
2018-09-27T06:11:40.301Z,8.90
2018-09-27T06:14:08.979Z,10.60
2018-09-27T06:16:38.672Z,11.50
2018-09-27T06:19:08.064Z,6.97
2018-09-27T06:21:36.890Z,10.80
2018-09-27T06:24:06.027Z,8.07
2018-09-27T06:26:34.651Z,9.57
2018-09-27T06:29:03.426Z,10.53
2018-09-27T06:31:32.074Z,10.70
2018-09-27T06:34:00.712Z,13.70
2018-09-27T06:36:29.379Z,9.50
2018-09-27T06:38:58.012Z,6.70
2018-09-27T06:41:26.797Z,7.20
2018-09-27T06:43:55.430Z,6.60
2018-09-27T06:46:24.034Z,8.33
2018-09-27T06:48:52.705Z,9.93
2018-09-27T06:51:21.377Z,9.40
2018-09-27T06:53:50.023Z,10.47
2018-09-27T06:56:18.702Z,8.33
2018-09-27T06:58:47.378Z,7.60
2018-09-27T07:01:16.023Z,8.60
2018-09-27T07:03:44.628Z,8.47
2018-09-27T07:06:13.296Z,9.70
2018-09-27T07:08:42.109Z,8.00
2018-09-27T07:11:10.799Z,12.03
2018-09-27T07:13:39.446Z,9.07
2018-09-27T07:16:08.181Z,8.83
2018-09-27T07:18:36.835Z,9.13
2018-09-27T07:21:05.549Z,9.27
2018-09-27T07:23:34.196Z,11.13
2018-09-27T07:26:03.132Z,8.80
2018-09-27T07:28:31.761Z,8.37
2018-09-27T07:31:00.488Z,8.57
2018-09-27T07:33:29.124Z,8.53
2018-09-27T07:35:57.816Z,11.33
2018-09-27T07:38:26.500Z,10.90
2018-09-27T07:40:55.183Z,11.07
2018-09-27T07:43:23.851Z,10.20
2018-09-27T07:45:52.521Z,10.37
2018-09-27T07:48:21.142Z,10.27
2018-09-27T07:50:49.774Z,9.30
2018-09-27T07:53:18.054Z,9.07
2018-09-27T07:55:46.712Z,9.73
2018-09-27T07:58:14.996Z,9.53
2018-09-27T08:00:43.634Z,8.80
2018-09-27T08:03:12.329Z,9.40
2018-09-27T08:05:40.948Z,10.00
2018-09-27T08:08:09.619Z,10.40
2018-09-27T08:10:38.259Z,11.28
2018-09-27T08:13:06.927Z,13.78
2018-09-27T08:15:35.538Z,10.13
2018-09-27T08:18:04.216Z,13.25
2018-09-27T08:20:32.902Z,11.03
2018-09-27T08:23:01.521Z,12.88
2018-09-27T08:25:30.143Z,10.30
2018-09-27T08:27:58.781Z,15.40
2018-09-27T08:30:27.435Z,10.90
2018-09-27T08:32:56.070Z,13.32
2018-09-27T08:35:24.783Z,12.00
2018-09-27T08:37:53.432Z,12.10
2018-09-27T08:40:21.734Z,15.48
2018-09-27T08:42:50.485Z,11.60
2018-09-27T08:45:19.325Z,9.78
2018-09-27T08:47:47.746Z,11.83
2018-09-27T08:50:16.414Z,13.60
2018-09-27T08:52:44.709Z,11.90
2018-09-27T08:55:13.376Z,12.95
2018-09-27T08:57:42.016Z,16.45
2018-09-27T09:00:10.664Z,20.52
2018-09-27T09:02:39.343Z,14.58
2018-09-27T09:05:08.169Z,13.03
2018-09-27T09:07:36.985Z,13.30
2018-09-27T09:10:05.769Z,11.73
2018-09-27T09:12:34.398Z,13.05
2018-09-27T09:15:03.049Z,14.07
2018-09-27T09:17:31.719Z,14.75
2018-09-27T09:20:00.381Z,13.25
2018-09-27T09:22:28.990Z,11.90
2018-09-27T09:24:57.660Z,13.90
2018-09-27T09:27:26.355Z,11.22
2018-09-27T09:29:55.127Z,13.03
2018-09-27T09:32:23.750Z,15.25
2018-09-27T09:34:52.540Z,12.40
2018-09-27T09:37:21.215Z,12.88
2018-09-27T09:39:49.965Z,12.23
2018-09-27T09:42:18.620Z,11.60
2018-09-27T09:44:47.261Z,11.70
2018-09-27T09:47:16.072Z,13.45
2018-09-27T09:49:44.371Z,12.07
2018-09-27T09:52:12.982Z,10.25
2018-09-27T09:54:42.096Z,12.47
2018-09-27T09:57:10.803Z,12.68
2018-09-27T09:59:39.475Z,12.35
2018-09-27T10:02:08.164Z,12.23
2018-09-27T10:04:36.807Z,11.33
2018-09-27T10:07:05.478Z,14.47
2018-09-27T10:09:34.101Z,12.65
2018-09-27T10:12:02.764Z,10.48
2018-09-27T10:14:31.438Z,11.70
2018-09-27T10:17:00.108Z,12.82
2018-09-27T10:19:28.732Z,10.40
2018-09-27T10:21:57.407Z,11.22
2018-09-27T10:24:26.048Z,9.65
2018-09-27T10:26:54.649Z,11.48
2018-09-27T10:29:23.329Z,9.78
2018-09-27T10:31:51.970Z,11.65
2018-09-27T10:34:21.004Z,10.25
2018-09-27T10:36:49.652Z,11.85
2018-09-27T10:39:18.270Z,9.93
2018-09-27T10:41:46.952Z,9.78
2018-09-27T10:44:15.665Z,10.43
2018-09-27T10:46:44.318Z,9.70
2018-09-27T10:49:12.936Z,9.03
2018-09-27T10:51:41.567Z,9.03
2018-09-27T10:54:10.262Z,10.23
2018-09-27T10:56:38.963Z,8.23
2018-09-27T10:59:07.658Z,9.73
2018-09-27T11:01:36.314Z,8.53
2018-09-27T11:04:04.992Z,10.13
2018-09-27T11:06:33.647Z,8.65
2018-09-27T11:09:02.318Z,9.18
2018-09-27T11:11:31.022Z,8.25
2018-09-27T11:13:59.686Z,8.63
2018-09-27T11:16:28.441Z,9.55
2018-09-27T11:18:57.104Z,6.83
2018-09-27T11:21:25.782Z,8.48
2018-09-27T11:23:54.439Z,7.78
2018-09-27T11:26:23.121Z,6.90
2018-09-27T11:28:57.089Z,6.08
2018-09-27T11:31:30.990Z,5.17
2018-09-27T11:33:59.614Z,5.58
2018-09-27T11:36:28.333Z,6.75
2018-09-27T11:38:56.899Z,7.10
2018-09-27T11:41:25.571Z,6.22
2018-09-27T11:43:54.232Z,8.35
2018-09-27T11:46:22.989Z,7.12
2018-09-27T11:48:51.631Z,9.83
2018-09-27T11:51:20.302Z,5.85
2018-09-27T11:53:48.910Z,5.97
2018-09-27T11:56:17.543Z,5.17
2018-09-27T11:58:46.188Z,9.73
2018-09-27T12:01:14.866Z,4.03
2018-09-27T12:03:43.523Z,7.25
2018-09-27T12:06:12.130Z,8.65
2018-09-27T12:08:40.771Z,6.90
2018-09-27T12:11:09.389Z,5.85
2018-09-27T12:13:39.515Z,7.03
2018-09-27T12:16:08.878Z,6.28
2018-09-27T12:18:37.592Z,4.92
2018-09-27T12:21:06.393Z,7.10
2018-09-27T12:23:35.138Z,5.58
2018-09-27T12:26:03.785Z,4.47
2018-09-27T12:28:32.500Z,6.20
2018-09-27T12:31:01.248Z,6.25
2018-09-27T12:33:30.221Z,7.00
2018-09-27T12:35:58.865Z,8.13
2018-09-27T12:38:27.527Z,6.05
2018-09-27T12:40:56.137Z,6.53
2018-09-27T12:43:24.921Z,5.45
2018-09-27T12:45:53.590Z,6.83
2018-09-27T12:48:22.302Z,7.17
2018-09-27T12:50:50.953Z,6.50
2018-09-27T12:53:19.605Z,8.65
2018-09-27T12:55:48.637Z,6.37
2018-09-27T12:58:17.227Z,6.92
2018-09-27T13:00:45.897Z,5.92
2018-09-27T13:03:14.547Z,5.08
2018-09-27T13:05:43.285Z,6.22
2018-09-27T13:08:12.003Z,6.70
2018-09-27T13:10:40.672Z,6.12
2018-09-27T13:13:09.370Z,6.47
2018-09-27T13:15:38.026Z,8.63
2018-09-27T13:18:06.672Z,7.72
2018-09-27T13:20:35.371Z,6.92
2018-09-27T13:23:04.066Z,6.70
2018-09-27T13:25:32.818Z,6.67
2018-09-27T13:28:01.463Z,5.72
2018-09-27T13:30:30.357Z,9.23
2018-09-27T13:32:59.020Z,8.00
2018-09-27T13:35:27.657Z,6.47
2018-09-27T13:37:56.278Z,7.25
2018-09-27T13:40:24.974Z,6.28
2018-09-27T13:42:53.638Z,8.48
2018-09-27T13:45:22.282Z,10.58
2018-09-27T13:47:51.088Z,7.30
2018-09-27T13:50:19.745Z,7.75
2018-09-27T13:52:48.413Z,6.53
2018-09-27T13:55:17.171Z,8.35
2018-09-27T13:57:45.826Z,6.25
2018-09-27T14:00:14.470Z,7.28
2018-09-27T14:02:43.106Z,7.60
2018-09-27T14:05:11.748Z,8.35
2018-09-27T14:07:40.850Z,10.30
2018-09-27T14:10:09.564Z,9.95
2018-09-27T14:12:38.745Z,8.05
2018-09-27T14:15:07.891Z,10.38
2018-09-27T14:17:36.572Z,11.78
2018-09-27T14:20:06.537Z,9.53
2018-09-27T14:22:34.882Z,8.90
2018-09-27T14:25:03.171Z,5.97
2018-09-27T14:27:31.945Z,9.28
2018-09-27T14:30:00.660Z,8.45
2018-09-27T14:32:28.888Z,7.25
2018-09-27T14:34:57.572Z,8.98
2018-09-27T14:37:26.366Z,8.60
2018-09-27T14:39:55.050Z,7.42
2018-09-27T14:42:23.704Z,7.03
2018-09-27T14:44:52.860Z,7.12
2018-09-27T14:47:21.596Z,11.00
2018-09-27T14:49:50.230Z,9.73
2018-09-27T14:52:20.371Z,7.10
2018-09-27T14:54:49.296Z,7.85
2018-09-27T14:57:17.924Z,9.80
2018-09-27T14:59:46.252Z,6.15
2018-09-27T15:02:14.610Z,7.37
2018-09-27T15:04:43.236Z,6.35
2018-09-27T15:07:12.831Z,6.28
2018-09-27T15:09:41.295Z,7.28
2018-09-27T15:12:09.968Z,6.53
2018-09-27T15:14:38.335Z,4.87
2018-09-27T15:17:06.890Z,5.78
2018-09-27T15:19:35.598Z,6.60
2018-09-27T15:22:04.659Z,5.62
2018-09-27T15:24:33.363Z,5.95
2018-09-27T15:27:02.006Z,5.67
2018-09-27T15:29:30.725Z,7.15
2018-09-27T15:31:59.070Z,8.60
2018-09-27T15:34:28.740Z,7.25
2018-09-27T15:36:57.506Z,6.28
2018-09-27T15:39:26.155Z,6.78
2018-09-27T15:41:54.881Z,5.60
2018-09-27T15:44:23.524Z,5.05
2018-09-27T15:46:52.295Z,7.47
2018-09-27T15:49:20.974Z,5.20
2018-09-27T15:51:49.651Z,7.83
2018-09-27T15:54:18.306Z,8.10
2018-09-27T15:56:46.752Z,6.92
2018-09-27T15:59:15.464Z,6.58
2018-09-27T16:01:44.399Z,8.25
2018-09-27T16:04:13.561Z,7.08
2018-09-27T16:06:41.965Z,5.30
2018-09-27T16:09:11.922Z,7.45
2018-09-27T16:11:42.161Z,7.60
2018-09-27T16:14:11.065Z,5.62
2018-09-27T16:16:40.018Z,11.05
2018-09-27T16:19:08.865Z,7.05
2018-09-27T16:21:37.538Z,7.22
2018-09-27T16:24:06.195Z,8.28
2018-09-27T16:26:35.644Z,5.87
2018-09-27T16:29:05.675Z,5.33
2018-09-27T16:31:35.322Z,4.58
2018-09-27T16:34:04.123Z,5.30
2018-09-27T16:36:33.631Z,6.72
2018-09-27T16:39:02.577Z,7.78
2018-09-27T16:41:30.880Z,5.97
2018-09-27T16:44:00.682Z,5.28
2018-09-27T16:46:29.647Z,5.33
2018-09-27T16:49:00.025Z,6.83
2018-09-27T16:51:29.968Z,6.17
2018-09-27T16:53:58.916Z,5.20
2018-09-27T16:56:27.180Z,6.03
2018-09-27T16:58:55.458Z,8.50
2018-09-27T17:01:24.139Z,5.50
2018-09-27T17:03:52.791Z,5.95
2018-09-27T17:06:21.413Z,3.98
2018-09-27T17:08:51.637Z,5.75
2018-09-27T17:11:20.512Z,5.15
2018-09-27T17:13:49.159Z,6.92
2018-09-27T17:16:17.448Z,4.03
2018-09-27T17:18:47.640Z,4.60
2018-09-27T17:21:18.591Z,4.40
2018-09-27T17:23:47.522Z,5.05
2018-09-27T17:26:16.218Z,8.20
2018-09-27T17:28:44.545Z,3.42
2018-09-27T17:31:14.504Z,4.45
2018-09-27T17:33:45.114Z,4.92
2018-09-27T17:36:13.995Z,3.47
2018-09-27T17:38:43.348Z,4.58
2018-09-27T17:41:12.074Z,2.85
2018-09-27T17:43:40.373Z,6.75
2018-09-27T17:46:11.410Z,4.85
2018-09-27T17:48:39.992Z,3.72
2018-09-27T17:51:08.618Z,5.03
2018-09-27T17:53:37.253Z,3.50
2018-09-27T17:56:05.547Z,3.12
2018-09-27T17:58:34.290Z,8.13
2018-09-27T18:01:02.946Z,4.67
2018-09-27T18:03:31.258Z,9.15
2018-09-27T18:05:59.877Z,8.70
2018-09-27T18:08:28.581Z,11.10
2018-09-27T18:10:57.306Z,14.60
2018-09-27T18:13:25.985Z,12.50
2018-09-27T18:15:54.656Z,10.90
2018-09-27T18:18:23.290Z,8.53
2018-09-27T18:20:51.995Z,7.30
2018-09-27T18:23:21.500Z,6.17
2018-09-27T18:25:50.154Z,6.37
2018-09-27T18:28:18.788Z,7.70
2018-09-27T18:30:47.424Z,8.03
2018-09-27T18:33:16.047Z,9.00
2018-09-27T18:35:44.715Z,11.50
2018-09-27T18:38:13.744Z,11.83
2018-09-27T18:40:42.304Z,13.40
2018-09-27T18:43:10.983Z,13.77
2018-09-27T18:45:39.687Z,10.43
2018-09-27T18:48:08.457Z,13.07
2018-09-27T18:50:37.228Z,15.63
2018-09-27T18:53:05.924Z,17.13
2018-09-27T18:55:34.662Z,14.13
2018-09-27T18:58:03.320Z,13.87
2018-09-27T19:00:32.022Z,13.13
2018-09-27T19:03:00.672Z,13.83
2018-09-27T19:05:29.323Z,10.17
2018-09-27T19:07:58.056Z,9.90
2018-09-27T19:10:26.755Z,8.33
2018-09-27T19:12:55.503Z,7.40
2018-09-27T19:15:24.150Z,6.17
2018-09-27T19:17:53.404Z,7.83
2018-09-27T19:20:22.120Z,5.23
2018-09-27T19:22:50.908Z,6.20
2018-09-27T19:25:19.581Z,4.60
2018-09-27T19:27:48.292Z,6.23
2018-09-27T19:30:16.935Z,5.80
2018-09-27T19:32:45.629Z,5.17
2018-09-27T19:35:13.982Z,6.43
2018-09-27T19:37:42.701Z,6.10
2018-09-27T19:40:11.369Z,7.83
2018-09-27T19:42:40.010Z,6.83
2018-09-27T19:45:08.679Z,6.27
2018-09-27T19:47:37.369Z,5.87
2018-09-27T19:50:06.021Z,8.23
2018-09-27T19:52:34.947Z,6.37
2018-09-27T19:55:03.617Z,5.50
2018-09-27T19:57:32.289Z,7.70
2018-09-27T20:00:00.960Z,7.17
2018-09-27T20:02:29.661Z,6.27
2018-09-27T20:04:58.298Z,6.03
2018-09-27T20:07:27.261Z,5.27
2018-09-27T20:09:55.942Z,8.80
2018-09-27T20:12:24.706Z,9.47
2018-09-27T20:14:53.341Z,8.70
2018-09-27T20:17:22.082Z,8.47
2018-09-27T20:19:50.753Z,6.93
2018-09-27T20:22:19.481Z,8.23
2018-09-27T20:24:48.110Z,7.83
2018-09-27T20:27:16.799Z,7.07
2018-09-27T20:29:45.487Z,8.73
2018-09-27T20:32:14.132Z,8.43
2018-09-27T20:34:42.860Z,7.30
2018-09-27T20:37:11.487Z,11.63
2018-09-27T20:39:40.128Z,6.30
2018-09-27T20:42:08.898Z,10.37
2018-09-27T20:44:37.552Z,9.17
2018-09-27T20:47:06.188Z,12.47
2018-09-27T20:49:34.849Z,8.37
2018-09-27T20:52:03.512Z,8.90
2018-09-27T20:54:32.149Z,11.73
2018-09-27T20:57:00.799Z,17.17
2018-09-27T20:59:29.487Z,28.00
2018-09-27T21:01:58.129Z,31.30
2018-09-27T21:04:26.745Z,26.57
2018-09-27T21:06:55.459Z,36.37
2018-09-27T21:09:24.140Z,23.43
2018-09-27T21:11:52.808Z,21.57
2018-09-27T21:14:21.455Z,14.40
2018-09-27T21:16:50.080Z,15.00
2018-09-27T21:19:18.830Z,14.77
2018-09-27T21:21:47.517Z,12.57
2018-09-27T21:24:16.180Z,12.50
2018-09-27T21:26:44.820Z,13.40
2018-09-27T21:29:13.493Z,12.83
2018-09-27T21:31:42.227Z,11.90
2018-09-27T21:34:10.895Z,13.40
2018-09-27T21:36:39.549Z,14.80
2018-09-27T21:39:08.563Z,13.90
2018-09-27T21:41:37.220Z,13.87
2018-09-27T21:44:05.994Z,12.77
2018-09-27T21:46:34.662Z,11.67
2018-09-27T21:49:03.340Z,11.67
2018-09-27T21:51:31.989Z,14.63
2018-09-27T21:54:00.626Z,13.67
2018-09-27T21:56:29.292Z,13.53
2018-09-27T21:58:57.955Z,14.27
2018-09-27T22:01:26.632Z,15.80
2018-09-27T22:03:55.251Z,15.07
2018-09-27T22:06:23.918Z,13.53
2018-09-27T22:08:52.594Z,14.87
2018-09-27T22:11:21.222Z,16.03
2018-09-27T22:13:49.935Z,14.83
2018-09-27T22:16:18.647Z,13.63
2018-09-27T22:18:47.320Z,14.23
2018-09-27T22:21:15.988Z,15.67
2018-09-27T22:23:44.629Z,17.13
2018-09-27T22:26:13.272Z,15.97
2018-09-27T22:28:41.976Z,14.10
2018-09-27T22:31:11.847Z,13.90
2018-09-27T22:33:40.540Z,13.47
2018-09-27T22:36:09.234Z,13.60
2018-09-27T22:38:37.950Z,13.37
2018-09-27T22:41:06.906Z,14.10
2018-09-27T22:43:35.577Z,11.20
2018-09-27T22:46:04.268Z,13.70
2018-09-27T22:48:32.943Z,15.23
2018-09-27T22:51:01.666Z,13.77
2018-09-27T22:53:30.352Z,13.10
2018-09-27T22:55:59.036Z,11.43
2018-09-27T22:58:27.738Z,13.63
2018-09-27T23:00:56.366Z,12.70
2018-09-27T23:03:25.002Z,11.87
2018-09-27T23:05:53.634Z,14.60
2018-09-27T23:08:21.925Z,13.57
2018-09-27T23:10:50.614Z,12.73
2018-09-27T23:13:19.346Z,13.93
2018-09-27T23:15:47.675Z,10.67
2018-09-27T23:18:16.330Z,14.40
2018-09-27T23:20:45.014Z,12.77
2018-09-27T23:23:13.647Z,12.90
2018-09-27T23:25:41.960Z,13.83
2018-09-27T23:28:10.641Z,11.50
2018-09-27T23:30:39.371Z,14.47
2018-09-27T23:33:07.764Z,12.73
2018-09-27T23:35:36.098Z,14.83
2018-09-27T23:38:04.400Z,17.67
2018-09-27T23:40:33.090Z,16.53
2018-09-27T23:43:01.440Z,18.37
2018-09-27T23:45:30.172Z,17.27
2018-09-27T23:47:58.823Z,13.97
2018-09-27T23:50:27.482Z,13.17
2018-09-27T23:52:55.810Z,15.53
2018-09-27T23:55:24.454Z,14.77
2018-09-27T23:57:52.747Z,14.43
